Time;durP1;ratioP1;P1;durP2;ratioP2;P2;SDS_P1;SDS_P2;PMS_P1;PMS_P2;Temp;Humidity;BMP_temperature;BMP_pressure;BME280_temperature;BME280_humidity;BME280_pressure;Samples;Min_cycle;Max_cycle;Signal;HPM_P1;HPM_P2
2021/11/30 00:01:23;;;;;;;14.80;7.43;;;2.60;99.90;;;;;;4991558;28;20390;-51
2021/11/30 00:03:49;;;;;;;11.47;6.43;;;2.60;99.90;;;;;;4990850;28;20406;-51
2021/11/30 00:06:15;;;;;;;13.30;6.83;;;2.50;99.90;;;;;;4990669;28;20899;-51
2021/11/30 00:08:41;;;;;;;13.65;6.78;;;2.50;99.90;;;;;;4991713;28;20406;-51
2021/11/30 00:11:09;;;;;;;10.70;5.50;;;2.40;99.90;;;;;;4991513;28;20927;-51
2021/11/30 00:13:37;;;;;;;12.82;7.07;;;2.40;99.90;;;;;;4990805;28;20888;-51
2021/11/30 00:16:04;;;;;;;14.80;6.85;;;2.30;99.90;;;;;;4991225;28;20751;-52
2021/11/30 00:18:32;;;;;;;15.38;6.57;;;2.30;99.90;;;;;;4992387;28;20387;-51
2021/11/30 00:21:04;;;;;;;13.48;7.07;;;2.40;99.90;;;;;;4989966;28;20429;-57
2021/11/30 00:23:30;;;;;;;11.82;5.55;;;2.30;99.90;;;;;;4992070;28;20447;-51
2021/11/30 00:25:56;;;;;;;12.43;5.60;;;3.10;99.90;;;;;;4991918;28;20383;-56
2021/11/30 00:28:21;;;;;;;11.45;5.80;;;2.00;99.90;;;;;;4991600;28;20387;-51
2021/11/30 00:30:49;;;;;;;12.85;6.40;;;2.30;99.90;;;;;;4990859;28;20474;-51
2021/11/30 00:33:15;;;;;;;11.32;5.65;;;2.20;99.90;;;;;;4991260;28;20522;-51
2021/11/30 00:35:40;;;;;;;14.27;5.40;;;3.50;99.90;;;;;;4991594;28;20394;-51
2021/11/30 00:38:07;;;;;;;12.95;6.50;;;2.00;99.90;;;;;;4990952;28;20401;-51
2021/11/30 00:40:36;;;;;;;10.63;5.32;;;2.00;99.90;;;;;;4991780;28;20394;-52
2021/11/30 00:43:02;;;;;;;14.98;6.70;;;2.00;99.90;;;;;;4991068;28;20390;-51
2021/11/30 00:45:36;;;;;;;16.55;7.53;;;2.80;99.90;;;;;;4991691;28;20383;-53
2021/11/30 00:48:08;;;;;;;14.50;7.10;;;2.00;99.90;;;;;;4989788;28;20389;-51
2021/11/30 00:50:38;;;;;;;14.43;7.72;;;2.10;99.90;;;;;;4991616;28;20478;-55
2021/11/30 00:53:04;;;;;;;14.05;6.43;;;2.20;99.90;;;;;;4990441;28;20895;-51
2021/11/30 00:55:30;;;;;;;13.30;7.35;;;2.20;99.90;;;;;;4991438;28;20387;-51
2021/11/30 00:57:56;;;;;;;11.40;6.35;;;2.20;99.90;;;;;;4991524;28;20417;-57
2021/11/30 01:00:21;;;;;;;13.23;5.80;;;3.20;99.90;;;;;;4991010;28;21007;-51
2021/11/30 01:02:48;;;;;;;13.40;6.10;;;2.30;99.90;;;;;;4991120;28;20391;-51
2021/11/30 01:05:15;;;;;;;12.80;6.57;;;2.30;99.90;;;;;;4990600;28;20406;-52
2021/11/30 01:07:41;;;;;;;13.27;6.90;;;2.30;99.90;;;;;;4990027;28;20410;-51
2021/11/30 01:10:13;;;;;;;12.82;6.50;;;2.30;99.90;;;;;;4990270;28;20418;-51
2021/11/30 01:12:39;;;;;;;13.85;6.18;;;2.30;99.90;;;;;;4990924;28;20852;-51
2021/11/30 01:15:09;;;;;;;10.55;6.07;;;2.20;99.90;;;;;;4990673;28;20477;-51
2021/11/30 01:17:35;;;;;;;11.70;5.70;;;2.20;99.90;;;;;;4990384;28;20714;-51
2021/11/30 01:20:01;;;;;;;13.02;7.00;;;2.20;99.90;;;;;;4989662;28;20883;-54
2021/11/30 01:22:28;;;;;;;12.25;6.70;;;3.70;99.90;;;;;;4990493;28;20386;-51
2021/11/30 01:24:53;;;;;;;12.80;5.70;;;2.20;99.90;;;;;;4990826;28;20382;-51
2021/11/30 01:27:19;;;;;;;13.37;6.80;;;2.30;99.90;;;;;;4989966;28;20473;-51
2021/11/30 01:29:45;;;;;;;12.00;7.00;;;2.20;99.90;;;;;;4990837;28;20682;-51
2021/11/30 01:32:10;;;;;;;14.97;7.57;;;2.20;99.90;;;;;;4988823;28;20831;-51
2021/11/30 01:34:36;;;;;;;14.40;5.77;;;2.40;99.90;;;;;;4990417;28;20452;-51
2021/11/30 01:37:02;;;;;;;14.02;6.70;;;3.90;99.90;;;;;;4996234;28;20944;-51
2021/11/30 01:39:28;;;;;;;13.10;6.43;;;2.30;99.90;;;;;;4999772;28;20403;-51
2021/11/30 01:41:54;;;;;;;10.35;5.50;;;2.30;99.90;;;;;;5000795;28;20402;-52
2021/11/30 01:47:08;;;;;;;14.20;5.87;;;2.20;99.90;;;;;;4999787;28;20435;-51
2021/11/30 01:49:34;;;;;;;12.05;6.15;;;2.30;99.90;;;;;;4991674;28;20521;-53
2021/11/30 01:52:19;;;;;;;14.50;5.60;;;2.40;99.90;;;;;;4989728;28;20414;-56
2021/11/30 01:54:45;;;;;;;13.48;5.60;;;2.40;99.90;;;;;;4990245;28;20413;-51
2021/11/30 01:57:14;;;;;;;12.43;6.15;;;2.40;99.90;;;;;;4989548;28;20394;-51
2021/11/30 01:59:41;;;;;;;10.52;5.95;;;2.40;99.90;;;;;;4990290;28;20406;-51
2021/11/30 02:02:06;;;;;;;14.10;6.18;;;4.00;99.90;;;;;;4989472;28;20379;-50
2021/11/30 02:04:32;;;;;;;12.88;6.00;;;2.40;99.90;;;;;;4990371;28;20472;-51
2021/11/30 02:06:58;;;;;;;9.52;5.22;;;2.40;99.90;;;;;;4989569;28;20382;-57
2021/11/30 02:09:24;;;;;;;13.93;5.40;;;2.40;99.90;;;;;;4989338;28;20468;-51
2021/11/30 02:11:51;;;;;;;9.75;4.70;;;2.50;99.90;;;;;;4990369;28;20466;-51
2021/11/30 02:14:17;;;;;;;12.20;4.55;;;3.00;99.90;;;;;;4989068;28;20425;-51
2021/11/30 02:16:44;;;;;;;10.23;4.80;;;2.50;99.90;;;;;;4989785;28;20398;-53
2021/11/30 02:19:10;;;;;;;9.85;4.93;;;2.60;99.90;;;;;;4989374;28;20390;-51
2021/11/30 02:21:39;;;;;;;10.23;4.70;;;3.40;99.90;;;;;;4995812;28;20503;-52
2021/11/30 02:24:06;;;;;;;9.60;4.00;;;2.50;99.90;;;;;;5008384;28;20392;-52
2021/11/30 02:26:35;;;;;;;8.10;3.80;;;2.60;99.90;;;;;;5009372;28;20375;-51
2021/11/30 02:29:02;;;;;;;9.70;4.10;;;3.30;99.90;;;;;;5009173;28;20403;-57
2021/11/30 02:31:31;;;;;;;8.73;4.05;;;2.60;99.90;;;;;;5011996;28;20475;-51
2021/11/30 02:33:57;;;;;;;8.15;4.13;;;2.60;99.90;;;;;;5013134;28;20508;-52
2021/11/30 02:36:37;;;;;;;8.23;3.35;;;2.70;99.90;;;;;;5013114;28;20519;-51
2021/11/30 02:39:06;;;;;;;8.82;4.00;;;2.60;99.90;;;;;;5012566;28;20405;-52
2021/11/30 02:41:33;;;;;;;8.90;3.38;;;2.70;99.90;;;;;;5013502;28;20858;-51
2021/11/30 02:44:00;;;;;;;8.05;3.35;;;2.70;99.90;;;;;;5011862;28;20397;-57
2021/11/30 02:46:41;;;;;;;7.22;3.15;;;2.70;99.90;;;;;;5012895;28;20388;-52
2021/11/30 02:49:11;;;;;;;8.27;3.38;;;2.70;99.90;;;;;;5010434;28;20400;-53
2021/11/30 02:51:41;;;;;;;9.20;3.80;;;2.60;99.90;;;;;;5012832;28;20455;-52
2021/11/30 02:54:09;;;;;;;8.23;3.10;;;2.70;99.90;;;;;;5011723;28;20404;-51
2021/11/30 02:56:40;;;;;;;9.70;3.22;;;2.80;99.90;;;;;;5013061;28;20420;-51
2021/11/30 02:59:05;;;;;;;7.28;2.90;;;2.80;99.90;;;;;;5012365;28;20459;-51
2021/11/30 03:01:31;;;;;;;6.60;2.70;;;2.80;99.90;;;;;;5012998;28;20444;-51
2021/11/30 03:03:57;;;;;;;7.43;2.97;;;4.40;99.90;;;;;;5011396;28;20385;-52
2021/11/30 03:06:24;;;;;;;7.13;3.45;;;2.80;99.90;;;;;;5010974;28;20746;-51
2021/11/30 03:08:51;;;;;;;6.90;3.03;;;2.80;99.90;;;;;;5011438;28;20428;-51
2021/11/30 03:11:17;;;;;;;6.18;2.55;;;2.80;99.90;;;;;;5012705;28;20715;-51
2021/11/30 03:13:42;;;;;;;7.50;2.50;;;2.80;99.90;;;;;;5012608;28;20462;-52
2021/11/30 03:16:08;;;;;;;8.55;3.05;;;2.80;99.90;;;;;;5012246;28;20388;-52
2021/11/30 03:18:36;;;;;;;7.22;2.40;;;2.90;99.90;;;;;;5013103;28;20761;-52
2021/11/30 03:21:04;;;;;;;6.60;2.88;;;2.90;99.90;;;;;;5012274;28;20471;-57
2021/11/30 03:23:31;;;;;;;8.27;3.00;;;2.80;99.90;;;;;;5012924;28;20929;-51
2021/11/30 03:25:56;;;;;;;7.30;2.40;;;2.80;99.90;;;;;;5012949;28;20399;-51
2021/11/30 03:28:22;;;;;;;6.10;2.38;;;2.80;99.90;;;;;;5012083;28;21375;-51
2021/11/30 03:31:02;;;;;;;7.03;2.40;;;2.80;99.90;;;;;;5010058;28;20397;-52
2021/11/30 03:36:12;;;;;;;6.57;2.15;;;3.80;99.90;;;;;;5002123;28;20875;-51
2021/11/30 03:38:37;;;;;;;5.27;2.20;;;2.90;99.90;;;;;;4992574;28;20406;-51
2021/11/30 03:41:03;;;;;;;8.40;2.40;;;3.60;99.90;;;;;;4990556;28;20473;-56
2021/11/30 03:43:29;;;;;;;8.27;2.20;;;3.00;99.90;;;;;;4992407;28;20389;-51
2021/11/30 03:45:55;;;;;;;5.80;1.60;;;3.90;99.90;;;;;;4992286;28;20792;-53
2021/11/30 03:48:21;;;;;;;5.13;1.58;;;3.10;99.90;;;;;;4991471;28;20897;-52
2021/11/30 03:50:47;;;;;;;6.30;1.60;;;3.00;99.90;;;;;;4998707;28;20401;-51
2021/11/30 03:53:12;;;;;;;5.25;1.58;;;3.00;99.90;;;;;;5010468;28;20475;-53
2021/11/30 03:55:38;;;;;;;5.70;2.10;;;3.10;99.90;;;;;;4992424;28;20405;-52
2021/11/30 03:58:03;;;;;;;6.22;1.50;;;3.90;99.90;;;;;;4991451;28;20379;-58
2021/11/30 04:00:29;;;;;;;5.10;1.80;;;2.60;99.90;;;;;;4992731;28;20469;-52
2021/11/30 04:02:56;;;;;;;4.50;1.70;;;3.20;99.90;;;;;;4995973;28;20400;-52
2021/11/30 04:05:21;;;;;;;5.45;1.73;;;3.30;99.90;;;;;;5005070;28;20390;-53
2021/11/30 04:07:47;;;;;;;6.10;1.60;;;4.00;99.90;;;;;;4994667;28;20379;-52
2021/11/30 04:10:13;;;;;;;4.97;1.75;;;3.20;99.90;;;;;;5011157;28;20401;-52
2021/11/30 04:12:38;;;;;;;5.43;1.60;;;3.30;99.90;;;;;;5010717;28;20491;-52
2021/11/30 04:15:05;;;;;;;4.60;1.60;;;4.50;99.90;;;;;;5009877;28;20415;-56
2021/11/30 04:17:30;;;;;;;6.28;1.60;;;3.20;99.90;;;;;;5011623;28;20381;-52
2021/11/30 04:19:56;;;;;;;6.33;1.60;;;3.20;99.90;;;;;;5012042;28;20893;-53
2021/11/30 04:22:22;;;;;;;5.68;1.92;;;3.20;99.90;;;;;;5010895;28;20465;-53
2021/11/30 04:24:47;;;;;;;6.40;2.00;;;3.20;99.90;;;;;;5010746;28;20395;-53
2021/11/30 04:27:13;;;;;;;6.07;2.00;;;3.30;99.90;;;;;;5011192;28;20396;-53
2021/11/30 04:29:42;;;;;;;7.75;1.90;;;3.30;99.90;;;;;;5011437;28;20441;-53
2021/11/30 04:32:08;;;;;;;6.78;1.90;;;3.30;99.90;;;;;;5009096;28;20396;-54
2021/11/30 04:34:34;;;;;;;7.10;2.10;;;3.30;99.90;;;;;;5011037;28;20413;-53
2021/11/30 04:37:00;;;;;;;8.00;1.90;;;3.20;99.90;;;;;;5011790;28;20475;-56
2021/11/30 04:39:26;;;;;;;8.05;2.10;;;3.20;99.90;;;;;;5010693;28;20431;-53
2021/11/30 04:41:52;;;;;;;7.77;2.50;;;2.90;99.90;;;;;;5010256;28;20523;-53
2021/11/30 04:44:19;;;;;;;7.32;2.20;;;3.00;99.90;;;;;;5010356;28;20794;-53
2021/11/30 04:46:56;;;;;;;8.15;2.13;;;2.90;99.90;;;;;;5010520;28;20385;-53
2021/11/30 04:51:57;;;;;;;6.82;2.53;;;2.80;99.90;;;;;;5011064;28;20400;-53
2021/11/30 04:54:23;;;;;;;6.23;2.27;;;2.80;99.90;;;;;;5010382;28;20405;-53
2021/11/30 04:56:49;;;;;;;7.20;2.30;;;2.70;99.90;;;;;;5010960;28;20385;-51
2021/11/30 04:59:17;;;;;;;6.13;2.40;;;2.90;99.90;;;;;;5010202;28;20420;-52
2021/11/30 05:01:43;;;;;;;5.50;2.38;;;2.70;99.90;;;;;;5010737;28;20393;-52
2021/11/30 05:04:09;;;;;;;7.47;2.70;;;2.60;99.90;;;;;;5009922;28;20484;-53
2021/11/30 05:06:36;;;;;;;5.47;2.47;;;2.70;99.90;;;;;;5010984;28;20415;-52
2021/11/30 05:09:02;;;;;;;8.23;2.50;;;2.80;99.90;;;;;;4997648;28;20869;-58
2021/11/30 05:11:28;;;;;;;6.72;2.80;;;2.60;99.90;;;;;;4999836;28;20393;-52
2021/11/30 05:13:54;;;;;;;6.43;2.80;;;2.70;99.90;;;;;;4991011;28;20517;-53
2021/11/30 05:16:20;;;;;;;8.10;3.03;;;2.60;99.90;;;;;;4990620;28;20497;-52
2021/11/30 05:18:46;;;;;;;7.05;3.00;;;2.70;99.90;;;;;;4990333;28;20437;-52
2021/11/30 05:21:11;;;;;;;6.45;3.20;;;2.50;99.90;;;;;;4990041;28;20406;-52
2021/11/30 05:23:38;;;;;;;8.23;3.40;;;3.10;99.90;;;;;;5004846;28;20998;-52
2021/11/30 05:26:05;;;;;;;7.60;3.40;;;3.20;99.90;;;;;;5000095;28;20416;-58
2021/11/30 05:28:34;;;;;;;7.82;3.85;;;2.40;99.90;;;;;;4990505;28;20748;-52
2021/11/30 05:31:00;;;;;;;7.70;3.53;;;2.30;99.90;;;;;;4990247;28;20395;-52
2021/11/30 05:33:26;;;;;;;8.73;3.40;;;2.20;99.90;;;;;;4989764;28;21147;-53
2021/11/30 05:35:52;;;;;;;7.63;3.10;;;2.50;99.90;;;;;;4990127;28;20446;-53
2021/11/30 05:38:18;;;;;;;7.00;3.40;;;2.00;99.90;;;;;;4989847;28;20426;-52
2021/11/30 05:40:44;;;;;;;8.90;4.10;;;2.60;99.90;;;;;;4989591;28;20410;-55
2021/11/30 05:43:11;;;;;;;13.10;4.60;;;2.50;99.90;;;;;;4992213;28;20400;-52
2021/11/30 05:45:36;;;;;;;8.60;3.50;;;3.70;99.90;;;;;;5009927;28;20434;-54
2021/11/30 05:48:02;;;;;;;8.90;3.53;;;1.80;99.90;;;;;;4997496;28;20787;-58
2021/11/30 05:50:28;;;;;;;10.10;4.50;;;1.80;99.90;;;;;;4998417;28;20401;-53
2021/11/30 05:52:54;;;;;;;10.07;4.57;;;1.90;99.90;;;;;;5000690;28;20515;-52
2021/11/30 05:55:20;;;;;;;8.07;3.83;;;2.80;99.90;;;;;;4989510;28;20483;-52
2021/11/30 05:57:46;;;;;;;6.40;3.10;;;2.00;99.90;;;;;;4990059;28;20414;-52
2021/11/30 06:00:16;;;;;;;10.30;3.90;;;1.90;99.90;;;;;;4989022;28;20390;-54
2021/11/30 06:05:29;;;;;;;9.32;3.63;;;1.90;99.90;;;;;;4988929;28;20406;-53
2021/11/30 06:07:56;;;;;;;10.60;4.13;;;3.10;99.90;;;;;;4995973;28;20911;-52
2021/11/30 06:10:22;;;;;;;8.05;3.60;;;2.70;99.90;;;;;;5002237;28;20398;-54
2021/11/30 06:12:48;;;;;;;8.70;3.85;;;1.80;99.90;;;;;;4996562;28;20451;-51
2021/11/30 06:15:15;;;;;;;9.50;3.60;;;1.80;99.90;;;;;;4995778;28;20874;-51
2021/11/30 06:17:40;;;;;;;9.27;4.28;;;1.70;99.90;;;;;;4999742;28;20477;-51
2021/11/30 06:20:09;;;;;;;7.80;3.80;;;1.60;99.90;;;;;;4989063;28;20479;-56
2021/11/30 06:22:35;;;;;;;9.73;3.97;;;1.60;99.90;;;;;;4993002;28;20879;-51
2021/11/30 06:25:03;;;;;;;10.15;5.03;;;1.60;99.90;;;;;;4995797;28;20476;-51
2021/11/30 06:27:28;;;;;;;10.18;4.57;;;1.60;99.90;;;;;;4989352;28;20386;-51
2021/11/30 06:29:54;;;;;;;9.65;4.82;;;1.60;99.90;;;;;;4993992;28;20787;-51
2021/11/30 06:32:20;;;;;;;11.17;4.57;;;1.60;99.90;;;;;;5008626;28;20471;-50
2021/11/30 06:34:45;;;;;;;11.13;4.95;;;1.60;99.90;;;;;;5008600;28;20845;-52
2021/11/30 06:37:11;;;;;;;8.65;4.30;;;2.90;99.90;;;;;;5008528;28;20385;-51
2021/11/30 06:39:37;;;;;;;11.70;4.87;;;3.40;99.90;;;;;;5009579;28;20403;-50
2021/11/30 06:42:04;;;;;;;9.45;4.50;;;1.90;99.90;;;;;;5008074;28;20397;-56
2021/11/30 06:44:33;;;;;;;10.50;3.80;;;1.50;99.90;;;;;;4995879;28;20457;-50
2021/11/30 06:46:58;;;;;;;8.88;4.28;;;1.50;99.90;;;;;;5006264;28;20382;-51
2021/11/30 06:49:24;;;;;;;10.57;5.05;;;1.50;99.90;;;;;;4992681;28;20917;-51
2021/11/30 06:51:50;;;;;;;10.20;5.00;;;1.60;99.90;;;;;;5009162;28;20395;-50
2021/11/30 06:54:15;;;;;;;8.30;3.93;;;2.90;99.90;;;;;;5007725;28;20870;-50
2021/11/30 06:56:41;;;;;;;9.27;4.72;;;2.60;99.90;;;;;;5008856;28;20443;-50
2021/11/30 06:59:07;;;;;;;9.13;3.83;;;3.20;99.90;;;;;;5007023;28;20730;-56
2021/11/30 07:01:34;;;;;;;10.70;4.50;;;3.00;99.90;;;;;;5007441;28;20423;-51
2021/11/30 07:04:02;;;;;;;7.85;3.90;;;2.20;99.90;;;;;;5008783;28;20965;-53
2021/11/30 07:06:38;;;;;;;7.73;3.70;;;0.80;99.90;;;;;;5008587;28;20404;-50
2021/11/30 07:09:15;;;;;;;11.63;4.30;;;3.40;99.90;;;;;;5010866;28;20495;-51
2021/11/30 07:14:08;;;;;;;7.00;3.70;;;1.70;99.90;;;;;;5001910;28;20425;-51
2021/11/30 07:16:34;;;;;;;7.00;3.80;;;1.70;99.90;;;;;;5006940;28;20408;-51
2021/11/30 07:19:01;;;;;;;6.30;3.10;;;2.30;99.90;;;;;;5012475;28;20385;-51
2021/11/30 07:21:27;;;;;;;6.22;2.88;;;1.70;99.90;;;;;;5010902;28;20475;-50
2021/11/30 07:23:54;;;;;;;8.70;3.77;;;3.30;99.90;;;;;;5010903;28;20451;-51
2021/11/30 07:26:20;;;;;;;8.63;3.13;;;1.80;99.90;;;;;;5008473;28;20385;-50
2021/11/30 07:28:46;;;;;;;6.20;2.47;;;1.70;99.90;;;;;;5012046;28;20850;-53
2021/11/30 07:31:13;;;;;;;6.75;2.85;;;1.70;99.90;;;;;;5011441;28;20447;-51
2021/11/30 07:33:42;;;;;;;7.97;2.60;;;1.70;99.90;;;;;;5012027;28;20409;-51
2021/11/30 07:36:10;;;;;;;5.45;2.40;;;1.70;99.90;;;;;;5011299;28;20539;-56
2021/11/30 07:38:36;;;;;;;5.05;2.30;;;1.70;99.90;;;;;;5012102;28;20447;-50
2021/11/30 07:41:03;;;;;;;7.50;2.20;;;1.90;99.90;;;;;;5032030;28;20899;-50
2021/11/30 07:43:29;;;;;;;5.63;2.47;;;1.90;99.90;;;;;;5030796;28;20383;-51
2021/11/30 07:45:55;;;;;;;5.88;2.00;;;3.40;99.90;;;;;;5031833;28;20401;-50
2021/11/30 07:48:21;;;;;;;5.80;2.53;;;1.80;99.90;;;;;;5031468;28;20383;-51
2021/11/30 07:50:47;;;;;;;7.23;2.40;;;1.70;99.90;;;;;;5031686;28;20463;-50
2021/11/30 07:53:13;;;;;;;6.33;2.23;;;1.80;99.90;;;;;;5031170;28;20485;-50
2021/11/30 07:55:39;;;;;;;5.33;2.40;;;3.00;99.90;;;;;;5031500;28;20384;-51
2021/11/30 07:58:07;;;;;;;6.45;2.38;;;1.70;99.90;;;;;;5031726;28;20462;-51
2021/11/30 08:00:33;;;;;;;6.57;2.50;;;1.80;99.90;;;;;;5022381;28;20535;-53
2021/11/30 08:02:59;;;;;;;5.05;2.08;;;1.80;99.90;;;;;;4995448;28;20417;-51
2021/11/30 08:05:24;;;;;;;5.90;2.57;;;3.60;99.90;;;;;;4990663;28;21265;-54
2021/11/30 08:07:50;;;;;;;6.53;2.40;;;1.80;99.90;;;;;;4990456;28;20386;-51
2021/11/30 08:10:18;;;;;;;8.40;2.30;;;3.70;99.90;;;;;;4991137;28;20926;-50
2021/11/30 08:12:44;;;;;;;5.90;2.03;;;1.80;99.90;;;;;;4991611;28;20386;-51
2021/11/30 08:15:12;;;;;;;5.78;2.10;;;2.70;99.90;;;;;;5029816;28;20391;-52
2021/11/30 08:17:38;;;;;;;5.88;2.58;;;1.80;99.90;;;;;;5027201;28;20854;-51
2021/11/30 08:20:05;;;;;;;5.97;2.05;;;2.90;99.90;;;;;;5011267;28;20392;-53
2021/11/30 08:22:31;;;;;;;5.85;2.00;;;2.00;99.90;;;;;;5009149;28;20496;-51
2021/11/30 08:24:57;;;;;;;5.53;1.98;;;2.30;99.90;;;;;;5010788;28;20471;-51
2021/11/30 08:27:22;;;;;;;5.53;2.00;;;2.00;99.90;;;;;;5009567;28;20388;-51
2021/11/30 08:29:50;;;;;;;5.00;1.80;;;2.20;99.90;;;;;;5010968;28;20395;-50
2021/11/30 08:32:20;;;;;;;5.35;1.55;;;2.10;99.90;;;;;;5010369;28;20392;-53
2021/11/30 08:34:46;;;;;;;4.70;2.13;;;2.10;99.90;;;;;;5001805;28;20727;-51
2021/11/30 08:37:11;;;;;;;4.67;1.50;;;2.20;99.90;;;;;;5005850;28;20396;-51
2021/11/30 08:39:38;;;;;;;5.65;1.80;;;2.10;99.90;;;;;;5008963;28;20498;-52
2021/11/30 08:42:07;;;;;;;6.03;2.20;;;2.80;99.90;;;;;;5004259;28;20420;-51
2021/11/30 08:44:33;;;;;;;5.30;2.30;;;2.10;99.90;;;;;;5007279;28;20439;-50
2021/11/30 08:46:59;;;;;;;4.85;1.90;;;2.10;99.90;;;;;;5009427;28;20392;-54
2021/11/30 08:49:26;;;;;;;5.00;2.15;;;2.20;99.90;;;;;;5009110;28;20743;-52
2021/11/30 08:51:56;;;;;;;6.75;2.10;;;2.20;99.90;;;;;;5003741;28;21355;-53
2021/11/30 08:54:22;;;;;;;6.97;1.80;;;2.20;99.90;;;;;;5007264;28;20456;-52
2021/11/30 08:56:47;;;;;;;4.70;1.88;;;2.40;99.90;;;;;;5009661;28;20846;-53
2021/11/30 08:59:13;;;;;;;6.25;2.15;;;2.20;99.90;;;;;;4986617;28;20451;-51
2021/11/30 09:01:41;;;;;;;5.75;1.85;;;2.50;99.90;;;;;;5008551;28;20428;-51
2021/11/30 09:04:07;;;;;;;5.00;1.80;;;2.30;99.90;;;;;;5006546;28;20408;-52
2021/11/30 09:06:33;;;;;;;6.00;1.75;;;3.50;99.90;;;;;;5007744;28;20399;-51
2021/11/30 09:08:59;;;;;;;5.63;1.40;;;3.70;99.90;;;;;;5006097;28;20463;-51
2021/11/30 09:11:25;;;;;;;4.70;1.70;;;3.30;99.90;;;;;;5007149;28;20909;-51
2021/11/30 09:13:52;;;;;;;4.80;1.50;;;2.30;99.90;;;;;;5007557;28;20428;-51
2021/11/30 09:16:18;;;;;;;5.50;1.90;;;2.50;99.90;;;;;;5000028;28;20457;-51
2021/11/30 09:18:44;;;;;;;5.90;1.92;;;2.40;99.90;;;;;;5005200;28;20410;-51
2021/11/30 09:21:10;;;;;;;4.78;1.40;;;2.50;99.90;;;;;;5002867;28;20414;-57
2021/11/30 09:23:36;;;;;;;4.30;1.70;;;2.40;99.90;;;;;;5006592;28;20411;-51
2021/11/30 09:26:02;;;;;;;4.60;1.50;;;2.40;99.90;;;;;;5006808;28;20409;-51
2021/11/30 09:28:28;;;;;;;4.33;1.60;;;2.40;99.90;;;;;;5003236;28;20408;-54
2021/11/30 09:30:54;;;;;;;4.57;1.48;;;2.50;99.90;;;;;;4997319;28;20402;-51
2021/11/30 09:33:19;;;;;;;5.72;1.83;;;2.60;99.90;;;;;;5005384;28;20421;-51
2021/11/30 09:35:45;;;;;;;4.50;1.50;;;2.70;99.90;;;;;;5010172;28;20476;-51
2021/11/30 09:38:11;;;;;;;4.80;1.55;;;2.80;99.90;;;;;;5008322;28;20404;-56
2021/11/30 09:40:39;;;;;;;5.00;1.70;;;2.80;99.90;;;;;;5007687;28;20467;-50
2021/11/30 09:43:07;;;;;;;5.13;1.33;;;2.90;99.90;;;;;;5009057;28;21245;-50
2021/11/30 09:45:37;;;;;;;4.75;1.48;;;2.80;99.90;;;;;;5008679;28;20393;-50
2021/11/30 09:48:03;;;;;;;4.28;1.27;;;3.00;99.90;;;;;;5009513;28;20400;-51
2021/11/30 09:50:29;;;;;;;5.13;1.40;;;2.80;99.90;;;;;;5008791;28;20381;-50
2021/11/30 09:52:56;;;;;;;4.17;1.30;;;2.80;99.90;;;;;;5008786;28;20824;-51
2021/11/30 09:55:24;;;;;;;7.70;2.65;;;3.20;99.90;;;;;;5007657;28;20479;-50
2021/11/30 09:57:51;;;;;;;5.90;2.20;;;3.00;99.90;;;;;;5009054;28;20507;-51
2021/11/30 10:00:18;;;;;;;4.28;1.50;;;3.00;99.90;;;;;;5008349;28;20384;-52
2021/11/30 10:02:44;;;;;;;4.30;1.50;;;3.00;99.90;;;;;;5009222;28;20389;-51
2021/11/30 10:05:10;;;;;;;25.03;9.20;;;3.00;99.90;;;;;;5008736;28;20377;-57
2021/11/30 10:07:43;;;;;;;7.43;2.80;;;3.00;99.90;;;;;;5008443;28;20873;-51
2021/11/30 10:10:29;;;;;;;4.05;1.02;;;3.10;99.90;;;;;;5008421;28;20409;-50
2021/11/30 10:13:00;;;;;;;10.32;3.78;;;3.10;99.90;;;;;;5010118;28;20385;-51
2021/11/30 10:15:29;;;;;;;4.43;1.50;;;3.20;99.90;;;;;;5008755;28;20385;-53
2021/11/30 10:18:18;;;;;;;26.90;12.80;;;3.30;99.90;;;;;;5008403;28;20389;-52
2021/11/30 10:20:45;;;;;;;5.70;1.92;;;3.30;99.90;;;;;;4998113;28;20413;-51
2021/11/30 10:23:11;;;;;;;5.57;3.05;;;3.30;99.90;;;;;;5005040;28;20869;-57
2021/11/30 10:25:41;;;;;;;4.95;2.25;;;3.10;99.90;;;;;;4999764;28;21906;-53
2021/11/30 10:28:16;;;;;;;6.45;2.78;;;3.20;99.90;;;;;;5002431;28;20427;-53
2021/11/30 10:30:50;;;;;;;4.03;1.30;;;3.20;99.90;;;;;;4998853;28;20402;-51
2021/11/30 10:33:27;;;;;;;4.38;1.45;;;3.20;99.90;;;;;;5005892;28;20435;-53
2021/11/30 10:35:58;;;;;;;4.80;1.77;;;3.20;99.90;;;;;;5008382;28;20389;-52
2021/11/30 10:38:41;;;;;;;3.72;1.10;;;3.20;99.90;;;;;;5008357;28;20874;-52
2021/11/30 10:41:19;;;;;;;6.57;2.97;;;3.30;99.90;;;;;;5009292;28;20404;-52
2021/11/30 10:44:05;;;;;;;3.25;0.63;;;3.30;99.90;;;;;;5009011;28;20439;-51
2021/11/30 10:46:34;;;;;;;4.53;1.33;;;3.40;99.90;;;;;;5005963;28;20397;-52
2021/11/30 10:49:01;;;;;;;5.00;0.90;;;3.40;99.90;;;;;;5009043;28;20392;-51
2021/11/30 10:51:28;;;;;;;3.50;0.70;;;3.40;99.90;;;;;;5010912;28;20388;-52
2021/11/30 10:54:00;;;;;;;4.73;1.90;;;3.40;99.90;;;;;;4992235;28;20416;-52
2021/11/30 10:56:27;;;;;;;4.00;1.20;;;3.30;99.90;;;;;;5008651;28;20420;-53
2021/11/30 10:58:55;;;;;;;4.80;1.40;;;3.40;99.90;;;;;;5012062;28;20921;-51
2021/11/30 11:01:23;;;;;;;4.70;1.30;;;3.40;99.90;;;;;;5011740;28;20379;-53
2021/11/30 11:04:01;;;;;;;11.73;3.90;;;3.40;99.90;;;;;;5012256;28;20480;-53
2021/11/30 11:06:31;;;;;;;3.55;0.75;;;3.40;99.90;;;;;;5011585;28;20882;-51
2021/11/30 11:09:02;;;;;;;5.20;0.70;;;3.40;99.90;;;;;;5009410;28;20412;-52
2021/11/30 11:11:34;;;;;;;5.90;2.10;;;3.60;99.90;;;;;;5011299;28;20428;-55
2021/11/30 11:14:02;;;;;;;7.25;2.90;;;3.60;99.90;;;;;;5010289;28;20494;-52
2021/11/30 11:16:37;;;;;;;3.30;0.82;;;4.80;99.90;;;;;;5011356;28;20392;-52
2021/11/30 11:19:05;;;;;;;3.72;1.20;;;3.60;99.90;;;;;;5006571;28;20393;-54
2021/11/30 11:21:33;;;;;;;4.00;0.68;;;3.70;99.90;;;;;;5012032;28;20468;-53
2021/11/30 11:24:05;;;;;;;3.93;1.00;;;3.60;99.90;;;;;;5012203;28;20392;-52
2021/11/30 11:26:43;;;;;;;10.60;1.60;;;3.70;99.90;;;;;;5009062;28;20798;-52
2021/11/30 11:29:16;;;;;;;3.10;0.40;;;3.70;99.90;;;;;;5009289;28;20409;-52
2021/11/30 11:31:46;;;;;;;3.83;0.93;;;3.60;99.90;;;;;;5011922;28;20387;-52
2021/11/30 11:34:15;;;;;;;4.53;1.48;;;4.50;99.90;;;;;;5011853;28;20436;-52
2021/11/30 11:36:42;;;;;;;5.40;1.40;;;3.70;99.90;;;;;;5012305;28;20500;-53
2021/11/30 11:39:08;;;;;;;3.50;0.60;;;3.70;99.90;;;;;;5012333;28;20392;-52
2021/11/30 11:41:34;;;;;;;3.58;1.00;;;3.70;99.90;;;;;;5010757;28;20399;-53
2021/11/30 11:44:00;;;;;;;4.83;0.90;;;3.60;99.90;;;;;;5011163;28;20475;-52
2021/11/30 11:46:32;;;;;;;4.40;0.90;;;3.70;99.90;;;;;;5010373;28;20476;-52
2021/11/30 11:49:02;;;;;;;7.10;2.05;;;3.80;99.90;;;;;;5011618;28;20393;-52
2021/11/30 11:51:46;;;;;;;3.38;0.63;;;3.80;99.90;;;;;;5009744;28;20878;-53
2021/11/30 11:54:31;;;;;;;4.95;0.95;;;3.80;99.90;;;;;;5010355;28;20412;-52
2021/11/30 11:57:09;;;;;;;3.65;0.45;;;3.60;99.90;;;;;;5010884;28;20531;-51
2021/11/30 11:59:40;;;;;;;3.60;0.70;;;3.60;99.90;;;;;;5010708;28;20408;-54
2021/11/30 12:02:28;;;;;;;3.90;1.08;;;3.70;99.90;;;;;;5010117;28;20480;-51
2021/11/30 12:04:55;;;;;;;5.28;1.48;;;3.70;99.90;;;;;;5011317;28;20450;-52
2021/11/30 12:07:23;;;;;;;3.00;0.40;;;3.80;99.90;;;;;;5009600;28;20766;-52
2021/11/30 12:10:10;;;;;;;4.40;1.20;;;3.70;99.90;;;;;;5009302;28;20438;-51
2021/11/30 12:12:35;;;;;;;3.10;0.50;;;3.80;99.90;;;;;;5010167;28;20401;-52
2021/11/30 12:15:02;;;;;;;3.20;0.60;;;3.70;99.90;;;;;;5011016;28;20423;-51
2021/11/30 12:17:28;;;;;;;3.50;0.70;;;3.80;99.90;;;;;;5010288;28;20392;-52
2021/11/30 12:19:57;;;;;;;3.20;0.60;;;3.90;99.90;;;;;;5010446;28;20420;-53
2021/11/30 12:22:43;;;;;;;3.33;0.60;;;3.90;99.90;;;;;;5010366;28;20455;-53
2021/11/30 12:25:23;;;;;;;4.00;0.50;;;4.40;99.90;;;;;;5011595;28;20389;-52
2021/11/30 12:27:49;;;;;;;3.92;0.68;;;4.10;99.90;;;;;;5010686;28;20854;-53
2021/11/30 12:30:46;;;;;;;3.40;0.70;;;3.90;99.90;;;;;;5010813;28;20401;-57
2021/11/30 12:33:15;;;;;;;3.45;0.50;;;3.80;99.90;;;;;;5005454;28;20925;-52
2021/11/30 12:35:44;;;;;;;3.50;0.70;;;4.00;99.90;;;;;;5010038;28;20405;-52
2021/11/30 12:38:15;;;;;;;3.38;0.60;;;4.10;99.90;;;;;;5010855;28;20455;-54
2021/11/30 12:40:43;;;;;;;3.35;0.80;;;4.10;99.90;;;;;;5010276;28;20393;-52
2021/11/30 12:43:12;;;;;;;3.20;0.50;;;4.10;99.90;;;;;;5010612;28;20396;-53
2021/11/30 12:45:46;;;;;;;4.00;0.70;;;4.70;99.90;;;;;;5009849;28;20380;-54
2021/11/30 12:48:22;;;;;;;4.70;1.40;;;4.10;99.90;;;;;;5010954;28;20463;-52
2021/11/30 12:50:56;;;;;;;42.42;16.85;;;4.20;99.90;;;;;;5010475;28;20385;-52
2021/11/30 12:53:39;;;;;;;7.93;2.20;;;4.10;99.90;;;;;;5008965;28;20774;-52
2021/11/30 12:56:05;;;;;;;3.50;0.60;;;4.70;99.90;;;;;;5007051;28;20491;-53
2021/11/30 12:58:48;;;;;;;3.72;0.70;;;4.30;99.90;;;;;;5006134;28;20388;-53
2021/11/30 13:01:25;;;;;;;3.20;0.50;;;4.40;99.90;;;;;;5005100;28;20393;-53
2021/11/30 13:04:31;;;;;;;3.30;0.50;;;4.50;99.90;;;;;;5008243;28;20393;-53
2021/11/30 13:07:03;;;;;;;3.30;0.60;;;4.60;99.90;;;;;;5009345;28;20397;-53
2021/11/30 13:09:50;;;;;;;3.25;0.70;;;4.60;99.90;;;;;;5006937;28;20409;-52
2021/11/30 13:12:34;;;;;;;3.10;0.50;;;4.40;99.90;;;;;;5007759;28;20400;-58
2021/11/30 13:15:04;;;;;;;3.60;0.50;;;4.50;99.90;;;;;;5013096;28;20478;-52